sensor_id;sensor_type;location;lat;lon;timestamp;P1;durP1;ratioP1;P2;durP2;ratioP2
11935;SDS011;6027;48.576;9.180;2022-07-19T00:01:37;2.22;;;2.03;;
11935;SDS011;6027;48.576;9.180;2022-07-19T00:04:03;2.97;;;2.08;;
11935;SDS011;6027;48.576;9.180;2022-07-19T00:06:28;3.03;;;2.00;;
11935;SDS011;6027;48.576;9.180;2022-07-19T00:08:54;3.35;;;2.00;;
11935;SDS011;6027;48.576;9.180;2022-07-19T00:11:19;3.53;;;1.83;;
11935;SDS011;6027;48.576;9.180;2022-07-19T00:13:45;2.42;;;2.05;;
11935;SDS011;6027;48.576;9.180;2022-07-19T00:16:10;2.85;;;2.08;;
11935;SDS011;6027;48.576;9.180;2022-07-19T00:18:36;2.53;;;1.77;;
11935;SDS011;6027;48.576;9.180;2022-07-19T00:21:01;2.83;;;2.00;;
11935;SDS011;6027;48.576;9.180;2022-07-19T00:23:27;1.90;;;1.70;;
11935;SDS011;6027;48.576;9.180;2022-07-19T00:25:52;2.65;;;2.08;;
11935;SDS011;6027;48.576;9.180;2022-07-19T00:28:18;1.95;;;1.85;;
11935;SDS011;6027;48.576;9.180;2022-07-19T00:30:43;1.95;;;1.80;;
11935;SDS011;6027;48.576;9.180;2022-07-19T00:33:09;2.72;;;2.20;;
11935;SDS011;6027;48.576;9.180;2022-07-19T00:35:35;2.38;;;1.90;;
11935;SDS011;6027;48.576;9.180;2022-07-19T00:38:05;2.45;;;2.10;;
11935;SDS011;6027;48.576;9.180;2022-07-19T00:40:32;3.45;;;2.05;;
11935;SDS011;6027;48.576;9.180;2022-07-19T00:42:58;2.63;;;1.77;;
11935;SDS011;6027;48.576;9.180;2022-07-19T00:45:23;2.50;;;2.10;;
11935;SDS011;6027;48.576;9.180;2022-07-19T00:47:49;2.90;;;2.10;;
11935;SDS011;6027;48.576;9.180;2022-07-19T00:50:15;3.08;;;2.00;;
11935;SDS011;6027;48.576;9.180;2022-07-19T00:52:40;3.17;;;2.15;;
11935;SDS011;6027;48.576;9.180;2022-07-19T00:55:10;2.75;;;1.98;;
11935;SDS011;6027;48.576;9.180;2022-07-19T00:57:37;3.30;;;1.80;;
11935;SDS011;6027;48.576;9.180;2022-07-19T01:00:04;4.45;;;2.00;;
11935;SDS011;6027;48.576;9.180;2022-07-19T01:02:31;2.40;;;2.05;;
11935;SDS011;6027;48.576;9.180;2022-07-19T01:04:57;5.45;;;2.00;;
11935;SDS011;6027;48.576;9.180;2022-07-19T01:07:22;3.22;;;2.10;;
11935;SDS011;6027;48.576;9.180;2022-07-19T01:09:48;4.45;;;2.00;;
11935;SDS011;6027;48.576;9.180;2022-07-19T01:12:14;4.32;;;2.17;;
11935;SDS011;6027;48.576;9.180;2022-07-19T01:14:40;3.15;;;2.13;;
11935;SDS011;6027;48.576;9.180;2022-07-19T01:17:05;3.17;;;2.20;;
11935;SDS011;6027;48.576;9.180;2022-07-19T01:19:31;2.35;;;2.08;;
11935;SDS011;6027;48.576;9.180;2022-07-19T01:21:56;4.13;;;2.13;;
11935;SDS011;6027;48.576;9.180;2022-07-19T01:24:22;2.42;;;1.98;;
11935;SDS011;6027;48.576;9.180;2022-07-19T01:26:47;3.17;;;2.40;;
11935;SDS011;6027;48.576;9.180;2022-07-19T01:29:16;3.10;;;2.10;;
11935;SDS011;6027;48.576;9.180;2022-07-19T01:31:43;2.38;;;1.80;;
11935;SDS011;6027;48.576;9.180;2022-07-19T01:34:09;5.80;;;2.47;;
11935;SDS011;6027;48.576;9.180;2022-07-19T01:36:34;2.70;;;1.83;;
11935;SDS011;6027;48.576;9.180;2022-07-19T01:39:00;2.03;;;1.83;;
11935;SDS011;6027;48.576;9.180;2022-07-19T01:41:26;4.80;;;1.90;;
11935;SDS011;6027;48.576;9.180;2022-07-19T01:43:51;3.63;;;2.50;;
11935;SDS011;6027;48.576;9.180;2022-07-19T01:46:17;2.10;;;1.95;;
11935;SDS011;6027;48.576;9.180;2022-07-19T01:48:42;2.55;;;1.98;;
11935;SDS011;6027;48.576;9.180;2022-07-19T01:51:08;4.60;;;2.10;;
11935;SDS011;6027;48.576;9.180;2022-07-19T01:53:34;2.53;;;2.00;;
11935;SDS011;6027;48.576;9.180;2022-07-19T01:56:00;4.95;;;2.05;;
11935;SDS011;6027;48.576;9.180;2022-07-19T01:58:29;2.95;;;2.03;;
11935;SDS011;6027;48.576;9.180;2022-07-19T02:00:54;2.28;;;2.00;;
11935;SDS011;6027;48.576;9.180;2022-07-19T02:03:20;2.72;;;1.95;;
11935;SDS011;6027;48.576;9.180;2022-07-19T02:05:45;2.38;;;1.90;;
11935;SDS011;6027;48.576;9.180;2022-07-19T02:08:11;2.67;;;1.80;;
11935;SDS011;6027;48.576;9.180;2022-07-19T02:10:36;5.10;;;2.05;;
11935;SDS011;6027;48.576;9.180;2022-07-19T02:13:02;2.47;;;1.83;;
11935;SDS011;6027;48.576;9.180;2022-07-19T02:15:27;2.33;;;1.85;;
11935;SDS011;6027;48.576;9.180;2022-07-19T02:17:53;4.88;;;2.20;;
11935;SDS011;6027;48.576;9.180;2022-07-19T02:20:19;2.40;;;2.00;;
11935;SDS011;6027;48.576;9.180;2022-07-19T02:22:44;3.25;;;2.03;;
11935;SDS011;6027;48.576;9.180;2022-07-19T02:25:10;2.88;;;2.03;;
11935;SDS011;6027;48.576;9.180;2022-07-19T02:27:36;3.90;;;2.13;;
11935;SDS011;6027;48.576;9.180;2022-07-19T02:30:02;2.95;;;2.20;;
11935;SDS011;6027;48.576;9.180;2022-07-19T02:32:28;4.38;;;2.30;;
11935;SDS011;6027;48.576;9.180;2022-07-19T02:34:54;4.65;;;2.08;;
11935;SDS011;6027;48.576;9.180;2022-07-19T02:37:19;3.05;;;2.10;;
11935;SDS011;6027;48.576;9.180;2022-07-19T02:39:45;2.30;;;2.08;;
11935;SDS011;6027;48.576;9.180;2022-07-19T02:42:10;3.00;;;2.10;;
11935;SDS011;6027;48.576;9.180;2022-07-19T02:44:36;2.72;;;2.00;;
11935;SDS011;6027;48.576;9.180;2022-07-19T02:47:01;2.40;;;2.10;;
11935;SDS011;6027;48.576;9.180;2022-07-19T02:49:27;4.53;;;2.45;;
11935;SDS011;6027;48.576;9.180;2022-07-19T02:51:52;2.75;;;2.10;;
11935;SDS011;6027;48.576;9.180;2022-07-19T02:54:18;2.50;;;2.15;;
11935;SDS011;6027;48.576;9.180;2022-07-19T02:56:43;4.60;;;2.40;;
11935;SDS011;6027;48.576;9.180;2022-07-19T02:59:09;5.65;;;2.17;;
11935;SDS011;6027;48.576;9.180;2022-07-19T03:01:34;2.65;;;2.20;;
11935;SDS011;6027;48.576;9.180;2022-07-19T03:04:00;2.65;;;2.03;;
11935;SDS011;6027;48.576;9.180;2022-07-19T03:06:25;4.88;;;2.20;;
11935;SDS011;6027;48.576;9.180;2022-07-19T03:08:51;4.53;;;2.17;;
11935;SDS011;6027;48.576;9.180;2022-07-19T03:11:17;4.63;;;2.03;;
11935;SDS011;6027;48.576;9.180;2022-07-19T03:13:42;3.20;;;1.98;;
11935;SDS011;6027;48.576;9.180;2022-07-19T03:16:08;3.53;;;2.30;;
11935;SDS011;6027;48.576;9.180;2022-07-19T03:18:34;2.50;;;2.10;;
11935;SDS011;6027;48.576;9.180;2022-07-19T03:21:00;2.75;;;2.20;;
11935;SDS011;6027;48.576;9.180;2022-07-19T03:23:27;9.48;;;2.55;;
11935;SDS011;6027;48.576;9.180;2022-07-19T03:25:53;6.60;;;2.63;;
11935;SDS011;6027;48.576;9.180;2022-07-19T03:28:18;3.42;;;2.45;;
11935;SDS011;6027;48.576;9.180;2022-07-19T03:30:44;5.20;;;2.33;;
11935;SDS011;6027;48.576;9.180;2022-07-19T03:33:10;3.08;;;2.13;;
11935;SDS011;6027;48.576;9.180;2022-07-19T03:35:36;3.22;;;2.38;;
11935;SDS011;6027;48.576;9.180;2022-07-19T03:38:01;3.65;;;2.20;;
11935;SDS011;6027;48.576;9.180;2022-07-19T03:40:27;4.13;;;2.00;;
11935;SDS011;6027;48.576;9.180;2022-07-19T03:42:52;2.88;;;2.35;;
11935;SDS011;6027;48.576;9.180;2022-07-19T03:45:18;3.63;;;2.08;;
11935;SDS011;6027;48.576;9.180;2022-07-19T03:47:43;3.25;;;2.47;;
11935;SDS011;6027;48.576;9.180;2022-07-19T03:50:09;3.65;;;2.55;;
11935;SDS011;6027;48.576;9.180;2022-07-19T03:52:34;3.25;;;2.30;;
11935;SDS011;6027;48.576;9.180;2022-07-19T03:55:00;4.20;;;2.08;;
11935;SDS011;6027;48.576;9.180;2022-07-19T03:57:25;2.45;;;2.25;;
11935;SDS011;6027;48.576;9.180;2022-07-19T03:59:51;2.85;;;2.10;;
11935;SDS011;6027;48.576;9.180;2022-07-19T04:02:16;4.70;;;2.60;;
11935;SDS011;6027;48.576;9.180;2022-07-19T04:04:42;3.53;;;2.10;;
11935;SDS011;6027;48.576;9.180;2022-07-19T04:07:08;5.00;;;2.28;;
11935;SDS011;6027;48.576;9.180;2022-07-19T04:09:34;3.67;;;2.38;;
11935;SDS011;6027;48.576;9.180;2022-07-19T04:11:59;4.47;;;2.58;;
11935;SDS011;6027;48.576;9.180;2022-07-19T04:14:25;2.80;;;2.42;;
11935;SDS011;6027;48.576;9.180;2022-07-19T04:16:50;3.30;;;2.28;;
11935;SDS011;6027;48.576;9.180;2022-07-19T04:19:16;3.67;;;2.63;;
11935;SDS011;6027;48.576;9.180;2022-07-19T04:21:41;3.53;;;2.67;;
11935;SDS011;6027;48.576;9.180;2022-07-19T04:24:07;3.35;;;2.20;;
11935;SDS011;6027;48.576;9.180;2022-07-19T04:26:32;3.80;;;2.92;;
11935;SDS011;6027;48.576;9.180;2022-07-19T04:28:58;4.60;;;3.17;;
11935;SDS011;6027;48.576;9.180;2022-07-19T04:31:23;3.67;;;3.30;;
11935;SDS011;6027;48.576;9.180;2022-07-19T04:33:49;8.48;;;3.70;;
11935;SDS011;6027;48.576;9.180;2022-07-19T04:36:14;4.18;;;2.95;;
11935;SDS011;6027;48.576;9.180;2022-07-19T04:38:39;3.40;;;2.80;;
11935;SDS011;6027;48.576;9.180;2022-07-19T04:41:05;5.63;;;2.55;;
11935;SDS011;6027;48.576;9.180;2022-07-19T04:43:30;3.88;;;2.40;;
11935;SDS011;6027;48.576;9.180;2022-07-19T04:45:56;3.72;;;2.30;;
11935;SDS011;6027;48.576;9.180;2022-07-19T04:48:25;7.15;;;2.83;;
11935;SDS011;6027;48.576;9.180;2022-07-19T04:50:55;3.33;;;2.30;;
11935;SDS011;6027;48.576;9.180;2022-07-19T04:53:20;3.65;;;2.50;;
11935;SDS011;6027;48.576;9.180;2022-07-19T04:55:46;4.00;;;2.53;;
11935;SDS011;6027;48.576;9.180;2022-07-19T04:58:11;5.82;;;2.80;;
11935;SDS011;6027;48.576;9.180;2022-07-19T05:00:37;3.92;;;2.50;;
11935;SDS011;6027;48.576;9.180;2022-07-19T05:03:02;5.65;;;2.35;;
11935;SDS011;6027;48.576;9.180;2022-07-19T05:05:29;4.13;;;2.85;;
11935;SDS011;6027;48.576;9.180;2022-07-19T05:07:54;7.45;;;2.50;;
11935;SDS011;6027;48.576;9.180;2022-07-19T05:10:20;5.28;;;2.85;;
11935;SDS011;6027;48.576;9.180;2022-07-19T05:12:45;7.03;;;3.03;;
11935;SDS011;6027;48.576;9.180;2022-07-19T05:15:11;6.53;;;2.75;;
11935;SDS011;6027;48.576;9.180;2022-07-19T05:17:36;6.85;;;2.90;;
11935;SDS011;6027;48.576;9.180;2022-07-19T05:20:02;4.43;;;2.78;;
11935;SDS011;6027;48.576;9.180;2022-07-19T05:22:28;4.63;;;2.50;;
11935;SDS011;6027;48.576;9.180;2022-07-19T05:24:54;7.88;;;2.90;;
11935;SDS011;6027;48.576;9.180;2022-07-19T05:27:21;2.40;;;2.20;;
11935;SDS011;6027;48.576;9.180;2022-07-19T05:29:47;4.25;;;2.78;;
11935;SDS011;6027;48.576;9.180;2022-07-19T05:32:12;3.00;;;2.65;;
11935;SDS011;6027;48.576;9.180;2022-07-19T05:34:38;3.25;;;2.35;;
11935;SDS011;6027;48.576;9.180;2022-07-19T05:37:04;4.13;;;2.97;;
11935;SDS011;6027;48.576;9.180;2022-07-19T05:39:30;5.63;;;2.80;;
11935;SDS011;6027;48.576;9.180;2022-07-19T05:41:55;4.45;;;2.70;;
11935;SDS011;6027;48.576;9.180;2022-07-19T05:44:21;3.03;;;2.65;;
11935;SDS011;6027;48.576;9.180;2022-07-19T05:46:46;3.85;;;2.67;;
11935;SDS011;6027;48.576;9.180;2022-07-19T05:49:12;4.50;;;2.70;;
11935;SDS011;6027;48.576;9.180;2022-07-19T05:51:38;3.35;;;2.90;;
11935;SDS011;6027;48.576;9.180;2022-07-19T05:54:04;7.82;;;3.03;;
11935;SDS011;6027;48.576;9.180;2022-07-19T05:56:30;4.22;;;2.92;;
11935;SDS011;6027;48.576;9.180;2022-07-19T05:58:56;5.18;;;2.90;;
11935;SDS011;6027;48.576;9.180;2022-07-19T06:01:23;4.32;;;2.90;;
11935;SDS011;6027;48.576;9.180;2022-07-19T06:06:16;4.88;;;2.80;;
11935;SDS011;6027;48.576;9.180;2022-07-19T06:08:42;4.38;;;2.85;;
11935;SDS011;6027;48.576;9.180;2022-07-19T06:11:08;6.70;;;2.92;;
11935;SDS011;6027;48.576;9.180;2022-07-19T06:13:34;3.47;;;2.63;;
11935;SDS011;6027;48.576;9.180;2022-07-19T06:16:00;4.60;;;2.67;;
11935;SDS011;6027;48.576;9.180;2022-07-19T06:18:25;3.03;;;2.55;;
11935;SDS011;6027;48.576;9.180;2022-07-19T06:20:51;3.55;;;2.53;;
11935;SDS011;6027;48.576;9.180;2022-07-19T06:23:16;2.90;;;2.60;;
11935;SDS011;6027;48.576;9.180;2022-07-19T06:25:42;3.38;;;2.40;;
11935;SDS011;6027;48.576;9.180;2022-07-19T06:28:07;4.05;;;2.42;;
11935;SDS011;6027;48.576;9.180;2022-07-19T06:30:32;4.05;;;2.28;;
11935;SDS011;6027;48.576;9.180;2022-07-19T06:32:58;2.75;;;2.28;;
11935;SDS011;6027;48.576;9.180;2022-07-19T06:35:24;5.22;;;2.47;;
11935;SDS011;6027;48.576;9.180;2022-07-19T06:37:49;5.65;;;2.55;;
11935;SDS011;6027;48.576;9.180;2022-07-19T06:40:15;5.85;;;2.47;;
11935;SDS011;6027;48.576;9.180;2022-07-19T06:42:40;4.10;;;2.50;;
11935;SDS011;6027;48.576;9.180;2022-07-19T06:45:06;3.42;;;2.50;;
11935;SDS011;6027;48.576;9.180;2022-07-19T06:47:32;4.97;;;2.63;;
11935;SDS011;6027;48.576;9.180;2022-07-19T06:49:58;3.22;;;2.13;;
11935;SDS011;6027;48.576;9.180;2022-07-19T06:52:24;6.30;;;2.38;;
11935;SDS011;6027;48.576;9.180;2022-07-19T06:54:50;2.78;;;2.08;;
11935;SDS011;6027;48.576;9.180;2022-07-19T06:57:15;2.67;;;2.22;;
11935;SDS011;6027;48.576;9.180;2022-07-19T06:59:41;3.65;;;2.17;;
11935;SDS011;6027;48.576;9.180;2022-07-19T07:02:06;2.30;;;2.10;;
11935;SDS011;6027;48.576;9.180;2022-07-19T07:04:32;4.07;;;1.70;;
11935;SDS011;6027;48.576;9.180;2022-07-19T07:06:57;3.83;;;2.00;;
11935;SDS011;6027;48.576;9.180;2022-07-19T07:09:23;2.88;;;1.98;;
11935;SDS011;6027;48.576;9.180;2022-07-19T07:11:48;3.47;;;2.00;;
11935;SDS011;6027;48.576;9.180;2022-07-19T07:14:14;1.85;;;1.65;;
11935;SDS011;6027;48.576;9.180;2022-07-19T07:16:39;3.20;;;1.80;;
11935;SDS011;6027;48.576;9.180;2022-07-19T07:19:05;1.83;;;1.52;;
11935;SDS011;6027;48.576;9.180;2022-07-19T07:21:31;2.80;;;1.70;;
11935;SDS011;6027;48.576;9.180;2022-07-19T07:24:03;3.15;;;1.90;;
11935;SDS011;6027;48.576;9.180;2022-07-19T07:26:30;2.97;;;1.90;;
11935;SDS011;6027;48.576;9.180;2022-07-19T07:28:56;4.88;;;1.70;;
11935;SDS011;6027;48.576;9.180;2022-07-19T07:31:21;2.72;;;1.73;;
11935;SDS011;6027;48.576;9.180;2022-07-19T07:33:47;1.98;;;1.77;;
11935;SDS011;6027;48.576;9.180;2022-07-19T07:36:12;5.13;;;1.85;;
11935;SDS011;6027;48.576;9.180;2022-07-19T07:38:38;2.97;;;2.08;;
11935;SDS011;6027;48.576;9.180;2022-07-19T07:41:04;2.88;;;1.75;;
11935;SDS011;6027;48.576;9.180;2022-07-19T07:43:30;1.85;;;1.60;;
11935;SDS011;6027;48.576;9.180;2022-07-19T07:45:56;2.95;;;1.60;;
11935;SDS011;6027;48.576;9.180;2022-07-19T07:48:21;3.67;;;1.70;;
11935;SDS011;6027;48.576;9.180;2022-07-19T07:50:47;5.38;;;1.75;;
11935;SDS011;6027;48.576;9.180;2022-07-19T07:53:12;1.92;;;1.60;;
11935;SDS011;6027;48.576;9.180;2022-07-19T07:55:38;2.03;;;1.45;;
11935;SDS011;6027;48.576;9.180;2022-07-19T07:58:07;2.75;;;1.40;;
11935;SDS011;6027;48.576;9.180;2022-07-19T08:00:34;3.53;;;1.80;;
11935;SDS011;6027;48.576;9.180;2022-07-19T08:03:00;1.80;;;1.70;;
11935;SDS011;6027;48.576;9.180;2022-07-19T08:05:26;1.85;;;1.60;;
11935;SDS011;6027;48.576;9.180;2022-07-19T08:07:51;4.38;;;1.80;;
11935;SDS011;6027;48.576;9.180;2022-07-19T08:10:17;1.90;;;1.63;;
11935;SDS011;6027;48.576;9.180;2022-07-19T08:12:43;3.40;;;1.50;;
11935;SDS011;6027;48.576;9.180;2022-07-19T08:15:08;1.60;;;1.50;;
11935;SDS011;6027;48.576;9.180;2022-07-19T08:17:34;1.60;;;1.50;;
11935;SDS011;6027;48.576;9.180;2022-07-19T08:19:59;5.00;;;1.70;;
11935;SDS011;6027;48.576;9.180;2022-07-19T08:22:25;1.80;;;1.55;;
11935;SDS011;6027;48.576;9.180;2022-07-19T08:24:53;5.88;;;1.65;;
11935;SDS011;6027;48.576;9.180;2022-07-19T08:27:19;1.65;;;1.50;;
11935;SDS011;6027;48.576;9.180;2022-07-19T08:29:44;3.50;;;1.83;;
11935;SDS011;6027;48.576;9.180;2022-07-19T08:32:10;1.55;;;1.42;;
11935;SDS011;6027;48.576;9.180;2022-07-19T08:34:35;4.47;;;1.63;;
11935;SDS011;6027;48.576;9.180;2022-07-19T08:37:01;2.75;;;1.50;;
11935;SDS011;6027;48.576;9.180;2022-07-19T08:39:26;4.78;;;1.30;;
11935;SDS011;6027;48.576;9.180;2022-07-19T08:41:52;3.13;;;1.65;;
11935;SDS011;6027;48.576;9.180;2022-07-19T08:44:17;5.20;;;2.00;;
11935;SDS011;6027;48.576;9.180;2022-07-19T08:46:43;2.35;;;1.70;;
11935;SDS011;6027;48.576;9.180;2022-07-19T08:49:09;3.22;;;1.70;;
11935;SDS011;6027;48.576;9.180;2022-07-19T08:51:35;2.65;;;1.75;;
11935;SDS011;6027;48.576;9.180;2022-07-19T08:54:01;2.45;;;1.60;;
11935;SDS011;6027;48.576;9.180;2022-07-19T08:56:28;4.15;;;1.70;;
11935;SDS011;6027;48.576;9.180;2022-07-19T08:59:12;1.92;;;1.70;;
11935;SDS011;6027;48.576;9.180;2022-07-19T09:01:38;2.33;;;1.80;;
11935;SDS011;6027;48.576;9.180;2022-07-19T09:04:09;3.05;;;1.95;;
11935;SDS011;6027;48.576;9.180;2022-07-19T09:06:40;4.50;;;1.75;;
11935;SDS011;6027;48.576;9.180;2022-07-19T09:09:14;4.22;;;2.00;;
11935;SDS011;6027;48.576;9.180;2022-07-19T09:11:45;3.63;;;1.88;;
11935;SDS011;6027;48.576;9.180;2022-07-19T09:14:16;7.07;;;1.90;;
11935;SDS011;6027;48.576;9.180;2022-07-19T09:19:42;5.70;;;1.90;;
11935;SDS011;6027;48.576;9.180;2022-07-19T09:22:10;3.38;;;2.05;;
11935;SDS011;6027;48.576;9.180;2022-07-19T09:24:42;2.60;;;1.90;;
11935;SDS011;6027;48.576;9.180;2022-07-19T09:27:13;2.60;;;1.73;;
11935;SDS011;6027;48.576;9.180;2022-07-19T09:29:40;3.25;;;1.50;;
11935;SDS011;6027;48.576;9.180;2022-07-19T09:32:12;4.00;;;2.03;;
11935;SDS011;6027;48.576;9.180;2022-07-19T09:34:53;6.05;;;2.00;;
11935;SDS011;6027;48.576;9.180;2022-07-19T09:37:32;2.17;;;1.80;;
11935;SDS011;6027;48.576;9.180;2022-07-19T09:40:05;3.03;;;2.10;;
11935;SDS011;6027;48.576;9.180;2022-07-19T09:42:42;2.00;;;1.80;;
11935;SDS011;6027;48.576;9.180;2022-07-19T09:45:12;2.97;;;2.05;;
11935;SDS011;6027;48.576;9.180;2022-07-19T09:47:40;2.83;;;1.75;;
11935;SDS011;6027;48.576;9.180;2022-07-19T09:50:14;3.50;;;1.95;;
11935;SDS011;6027;48.576;9.180;2022-07-19T09:52:43;6.93;;;2.15;;
11935;SDS011;6027;48.576;9.180;2022-07-19T09:55:10;2.55;;;2.08;;
11935;SDS011;6027;48.576;9.180;2022-07-19T09:57:44;2.58;;;2.20;;
11935;SDS011;6027;48.576;9.180;2022-07-19T10:00:13;4.47;;;1.85;;
11935;SDS011;6027;48.576;9.180;2022-07-19T10:02:40;6.68;;;1.83;;
11935;SDS011;6027;48.576;9.180;2022-07-19T10:05:08;3.83;;;2.00;;
11935;SDS011;6027;48.576;9.180;2022-07-19T10:07:36;4.80;;;2.20;;
11935;SDS011;6027;48.576;9.180;2022-07-19T10:10:05;2.10;;;1.90;;
11935;SDS011;6027;48.576;9.180;2022-07-19T10:12:36;2.88;;;1.80;;
11935;SDS011;6027;48.576;9.180;2022-07-19T10:15:06;5.03;;;2.17;;
11935;SDS011;6027;48.576;9.180;2022-07-19T10:17:34;2.10;;;1.90;;
11935;SDS011;6027;48.576;9.180;2022-07-19T10:20:03;4.57;;;1.92;;
11935;SDS011;6027;48.576;9.180;2022-07-19T10:22:31;3.20;;;1.90;;
11935;SDS011;6027;48.576;9.180;2022-07-19T10:24:57;2.50;;;1.70;;
11935;SDS011;6027;48.576;9.180;2022-07-19T10:30:38;7.47;;;2.10;;
11935;SDS011;6027;48.576;9.180;2022-07-19T10:32:36;5.43;;;2.13;;
11935;SDS011;6027;48.576;9.180;2022-07-19T10:35:15;2.05;;;1.85;;
11935;SDS011;6027;48.576;9.180;2022-07-19T10:38:06;7.07;;;2.15;;
11935;SDS011;6027;48.576;9.180;2022-07-19T10:43:17;4.35;;;2.05;;
11935;SDS011;6027;48.576;9.180;2022-07-19T10:54:02;3.50;;;2.30;;
11935;SDS011;6027;48.576;9.180;2022-07-19T10:56:32;4.35;;;2.20;;
11935;SDS011;6027;48.576;9.180;2022-07-19T10:59:06;3.05;;;2.03;;
11935;SDS011;6027;48.576;9.180;2022-07-19T11:01:34;3.22;;;2.20;;
11935;SDS011;6027;48.576;9.180;2022-07-19T11:07:08;6.10;;;2.45;;
11935;SDS011;6027;48.576;9.180;2022-07-19T11:09:39;3.65;;;2.20;;
11935;SDS011;6027;48.576;9.180;2022-07-19T11:12:19;2.80;;;2.20;;
11935;SDS011;6027;48.576;9.180;2022-07-19T11:14:57;5.80;;;2.20;;
11935;SDS011;6027;48.576;9.180;2022-07-19T11:17:23;5.13;;;2.10;;
11935;SDS011;6027;48.576;9.180;2022-07-19T11:19:56;5.78;;;1.92;;
11935;SDS011;6027;48.576;9.180;2022-07-19T11:22:40;5.35;;;2.22;;
11935;SDS011;6027;48.576;9.180;2022-07-19T11:25:10;2.15;;;1.95;;
11935;SDS011;6027;48.576;9.180;2022-07-19T11:27:39;5.15;;;2.22;;
11935;SDS011;6027;48.576;9.180;2022-07-19T11:30:06;4.05;;;2.20;;
11935;SDS011;6027;48.576;9.180;2022-07-19T11:32:33;2.65;;;2.10;;
11935;SDS011;6027;48.576;9.180;2022-07-19T11:34:59;5.22;;;2.60;;
11935;SDS011;6027;48.576;9.180;2022-07-19T11:37:27;5.10;;;2.50;;
11935;SDS011;6027;48.576;9.180;2022-07-19T11:39:54;4.43;;;2.20;;
11935;SDS011;6027;48.576;9.180;2022-07-19T11:42:29;2.53;;;2.08;;
11935;SDS011;6027;48.576;9.180;2022-07-19T11:45:06;5.45;;;2.58;;
11935;SDS011;6027;48.576;9.180;2022-07-19T11:47:43;3.40;;;2.08;;
11935;SDS011;6027;48.576;9.180;2022-07-19T11:50:11;2.72;;;2.22;;
11935;SDS011;6027;48.576;9.180;2022-07-19T11:52:51;2.80;;;2.10;;
11935;SDS011;6027;48.576;9.180;2022-07-19T11:55:21;3.45;;;2.35;;
11935;SDS011;6027;48.576;9.180;2022-07-19T11:57:52;3.45;;;2.05;;
11935;SDS011;6027;48.576;9.180;2022-07-19T12:00:18;3.70;;;2.42;;
11935;SDS011;6027;48.576;9.180;2022-07-19T12:02:51;5.65;;;2.30;;
11935;SDS011;6027;48.576;9.180;2022-07-19T12:05:18;9.30;;;2.45;;
11935;SDS011;6027;48.576;9.180;2022-07-19T12:07:45;2.97;;;2.30;;
11935;SDS011;6027;48.576;9.180;2022-07-19T12:12:59;3.08;;;2.40;;
11935;SDS011;6027;48.576;9.180;2022-07-19T12:15:25;5.78;;;2.65;;
11935;SDS011;6027;48.576;9.180;2022-07-19T12:17:55;5.40;;;2.53;;
11935;SDS011;6027;48.576;9.180;2022-07-19T12:20:22;2.95;;;2.22;;
11935;SDS011;6027;48.576;9.180;2022-07-19T12:22:50;3.00;;;2.20;;
11935;SDS011;6027;48.576;9.180;2022-07-19T12:25:34;3.25;;;2.00;;
11935;SDS011;6027;48.576;9.180;2022-07-19T12:28:01;4.57;;;2.30;;
11935;SDS011;6027;48.576;9.180;2022-07-19T12:30:27;3.38;;;2.45;;
11935;SDS011;6027;48.576;9.180;2022-07-19T12:33:04;4.80;;;2.33;;
11935;SDS011;6027;48.576;9.180;2022-07-19T12:35:45;3.67;;;2.20;;
11935;SDS011;6027;48.576;9.180;2022-07-19T12:38:12;3.30;;;2.15;;
11935;SDS011;6027;48.576;9.180;2022-07-19T12:40:39;4.97;;;2.25;;
11935;SDS011;6027;48.576;9.180;2022-07-19T12:43:06;4.45;;;2.05;;
11935;SDS011;6027;48.576;9.180;2022-07-19T12:48:02;5.63;;;2.20;;
11935;SDS011;6027;48.576;9.180;2022-07-19T12:50:30;5.47;;;1.90;;
11935;SDS011;6027;48.576;9.180;2022-07-19T12:52:56;6.47;;;2.08;;
11935;SDS011;6027;48.576;9.180;2022-07-19T12:55:24;2.65;;;2.00;;
11935;SDS011;6027;48.576;9.180;2022-07-19T12:57:51;7.78;;;2.05;;
11935;SDS011;6027;48.576;9.180;2022-07-19T13:00:18;4.55;;;2.35;;
11935;SDS011;6027;48.576;9.180;2022-07-19T13:02:46;4.95;;;1.92;;
11935;SDS011;6027;48.576;9.180;2022-07-19T13:05:12;3.38;;;2.05;;
11935;SDS011;6027;48.576;9.180;2022-07-19T13:07:38;2.80;;;1.92;;
11935;SDS011;6027;48.576;9.180;2022-07-19T13:10:04;4.68;;;2.25;;
11935;SDS011;6027;48.576;9.180;2022-07-19T13:12:30;6.47;;;2.00;;
11935;SDS011;6027;48.576;9.180;2022-07-19T13:14:56;5.85;;;1.73;;
11935;SDS011;6027;48.576;9.180;2022-07-19T13:17:21;5.13;;;2.10;;
11935;SDS011;6027;48.576;9.180;2022-07-19T13:19:47;6.13;;;2.15;;
11935;SDS011;6027;48.576;9.180;2022-07-19T13:22:12;2.50;;;1.90;;
11935;SDS011;6027;48.576;9.180;2022-07-19T13:24:38;3.80;;;2.20;;
11935;SDS011;6027;48.576;9.180;2022-07-19T13:27:04;3.45;;;2.10;;
11935;SDS011;6027;48.576;9.180;2022-07-19T13:29:29;5.30;;;2.10;;
11935;SDS011;6027;48.576;9.180;2022-07-19T13:31:55;4.68;;;2.10;;
11935;SDS011;6027;48.576;9.180;2022-07-19T13:34:21;2.80;;;1.92;;
11935;SDS011;6027;48.576;9.180;2022-07-19T13:36:48;2.40;;;1.80;;
11935;SDS011;6027;48.576;9.180;2022-07-19T13:39:14;4.03;;;1.83;;
11935;SDS011;6027;48.576;9.180;2022-07-19T13:41:40;5.88;;;2.45;;
11935;SDS011;6027;48.576;9.180;2022-07-19T13:44:06;4.70;;;2.08;;
11935;SDS011;6027;48.576;9.180;2022-07-19T13:46:32;4.07;;;2.30;;
11935;SDS011;6027;48.576;9.180;2022-07-19T13:48:58;3.95;;;2.13;;
11935;SDS011;6027;48.576;9.180;2022-07-19T13:51:24;3.35;;;2.40;;
11935;SDS011;6027;48.576;9.180;2022-07-19T13:53:50;6.93;;;2.35;;
11935;SDS011;6027;48.576;9.180;2022-07-19T13:56:16;4.68;;;1.90;;
11935;SDS011;6027;48.576;9.180;2022-07-19T13:58:42;3.25;;;2.33;;
11935;SDS011;6027;48.576;9.180;2022-07-19T14:01:07;4.82;;;2.10;;
11935;SDS011;6027;48.576;9.180;2022-07-19T14:03:35;8.02;;;2.40;;
11935;SDS011;6027;48.576;9.180;2022-07-19T14:06:01;8.25;;;2.60;;
11935;SDS011;6027;48.576;9.180;2022-07-19T14:08:26;5.35;;;2.33;;
11935;SDS011;6027;48.576;9.180;2022-07-19T14:10:52;5.00;;;2.45;;
11935;SDS011;6027;48.576;9.180;2022-07-19T14:13:17;6.25;;;2.00;;
11935;SDS011;6027;48.576;9.180;2022-07-19T14:15:43;2.30;;;1.98;;
11935;SDS011;6027;48.576;9.180;2022-07-19T14:18:09;4.70;;;2.35;;
11935;SDS011;6027;48.576;9.180;2022-07-19T14:20:35;7.72;;;2.60;;
11935;SDS011;6027;48.576;9.180;2022-07-19T14:23:00;2.55;;;2.30;;
11935;SDS011;6027;48.576;9.180;2022-07-19T14:25:26;7.55;;;2.78;;
11935;SDS011;6027;48.576;9.180;2022-07-19T14:27:51;4.05;;;2.10;;
11935;SDS011;6027;48.576;9.180;2022-07-19T14:30:17;2.70;;;2.20;;
11935;SDS011;6027;48.576;9.180;2022-07-19T14:32:42;5.70;;;2.45;;
11935;SDS011;6027;48.576;9.180;2022-07-19T14:35:08;4.60;;;2.42;;
11935;SDS011;6027;48.576;9.180;2022-07-19T14:37:33;2.88;;;2.00;;
11935;SDS011;6027;48.576;9.180;2022-07-19T14:40:02;4.13;;;2.33;;
11935;SDS011;6027;48.576;9.180;2022-07-19T14:42:28;4.53;;;2.10;;
11935;SDS011;6027;48.576;9.180;2022-07-19T14:44:55;4.50;;;2.38;;
11935;SDS011;6027;48.576;9.180;2022-07-19T14:47:21;6.30;;;2.25;;
11935;SDS011;6027;48.576;9.180;2022-07-19T14:49:47;2.35;;;2.10;;
11935;SDS011;6027;48.576;9.180;2022-07-19T14:52:12;5.28;;;2.00;;
11935;SDS011;6027;48.576;9.180;2022-07-19T14:54:38;4.80;;;2.20;;
11935;SDS011;6027;48.576;9.180;2022-07-19T14:57:03;3.92;;;1.90;;
11935;SDS011;6027;48.576;9.180;2022-07-19T14:59:28;3.30;;;2.20;;
11935;SDS011;6027;48.576;9.180;2022-07-19T15:01:54;2.88;;;2.30;;
11935;SDS011;6027;48.576;9.180;2022-07-19T15:04:19;5.10;;;2.20;;
11935;SDS011;6027;48.576;9.180;2022-07-19T15:06:45;5.88;;;2.30;;
11935;SDS011;6027;48.576;9.180;2022-07-19T15:09:12;6.95;;;2.20;;
11935;SDS011;6027;48.576;9.180;2022-07-19T15:11:38;4.47;;;2.20;;
11935;SDS011;6027;48.576;9.180;2022-07-19T15:14:04;3.75;;;2.10;;
11935;SDS011;6027;48.576;9.180;2022-07-19T15:16:30;3.35;;;2.05;;
11935;SDS011;6027;48.576;9.180;2022-07-19T15:18:55;3.50;;;2.20;;
11935;SDS011;6027;48.576;9.180;2022-07-19T15:21:21;4.38;;;2.22;;
11935;SDS011;6027;48.576;9.180;2022-07-19T15:23:47;4.20;;;2.20;;
11935;SDS011;6027;48.576;9.180;2022-07-19T15:26:12;3.03;;;2.13;;